Cap-de-la-Madeleine, Canada
Current Conditions -  °F | °C
As of 1:00 PM on Thursday 23 Oct 2014 (Local Time) from CYRQ Reporting Station
Overcast Overcast  
Wind Chill: 50°   Ceiling: 9500
Heat Index: 50°   Visibility: 9mi
Dew Point: 37°   Wind: 17mph
Humidity: 62%   Direction: 50°NE
Pressure: 30.06"   Gusts: 24mph
Location:  46.38°N, 72.55°W
Report Text: CYRQ 231700Z AUTO 05015G21KT 9SM OVC095 10/03 A3006 RMK SLP181
Loading
Personal Weather Stations






























Interactive Weather Map
Tropical Storm Tracking
New forecast layout! Learn more

10-Day Weather Forecast

Advertisements
Track Severe Weather on mobile